sensor_id;sensor_type;location;lat;lon;timestamp;temperature;humidity
29551;DHT22;16488;52.396;10.696;2022-10-14T00:01:33;11.50;99.90
29551;DHT22;16488;52.396;10.696;2022-10-14T00:03:58;11.40;99.90
29551;DHT22;16488;52.396;10.696;2022-10-14T00:06:27;11.20;99.90
29551;DHT22;16488;52.396;10.696;2022-10-14T00:08:53;11.10;99.90
29551;DHT22;16488;52.396;10.696;2022-10-14T00:11:23;11.00;99.90
29551;DHT22;16488;52.396;10.696;2022-10-14T00:13:49;10.90;99.90
29551;DHT22;16488;52.396;10.696;2022-10-14T00:16:25;10.80;99.90
29551;DHT22;16488;52.396;10.696;2022-10-14T00:18:51;10.80;99.90
29551;DHT22;16488;52.396;10.696;2022-10-14T00:21:17;10.80;99.90
29551;DHT22;16488;52.396;10.696;2022-10-14T00:23:44;10.80;99.90
29551;DHT22;16488;52.396;10.696;2022-10-14T00:26:18;10.80;99.90
29551;DHT22;16488;52.396;10.696;2022-10-14T00:28:44;10.80;99.90
29551;DHT22;16488;52.396;10.696;2022-10-14T00:31:10;10.70;99.90
29551;DHT22;16488;52.396;10.696;2022-10-14T00:33:36;10.70;99.90
29551;DHT22;16488;52.396;10.696;2022-10-14T00:36:04;10.70;99.90
29551;DHT22;16488;52.396;10.696;2022-10-14T00:38:30;10.70;99.90
29551;DHT22;16488;52.396;10.696;2022-10-14T00:40:56;10.70;99.90
29551;DHT22;16488;52.396;10.696;2022-10-14T00:43:23;10.70;99.90
29551;DHT22;16488;52.396;10.696;2022-10-14T00:45:49;10.80;99.90
29551;DHT22;16488;52.396;10.696;2022-10-14T00:48:16;10.80;99.90
29551;DHT22;16488;52.396;10.696;2022-10-14T00:50:43;10.80;99.90
29551;DHT22;16488;52.396;10.696;2022-10-14T00:53:10;10.70;99.90
29551;DHT22;16488;52.396;10.696;2022-10-14T00:55:39;10.70;99.90
29551;DHT22;16488;52.396;10.696;2022-10-14T00:58:05;10.60;99.90
29551;DHT22;16488;52.396;10.696;2022-10-14T01:00:31;10.60;99.90
29551;DHT22;16488;52.396;10.696;2022-10-14T01:02:57;10.60;99.90
29551;DHT22;16488;52.396;10.696;2022-10-14T01:05:24;10.70;99.90
29551;DHT22;16488;52.396;10.696;2022-10-14T01:08:06;10.70;99.90
29551;DHT22;16488;52.396;10.696;2022-10-14T01:10:47;10.70;99.90
29551;DHT22;16488;52.396;10.696;2022-10-14T01:13:39;10.70;99.90
29551;DHT22;16488;52.396;10.696;2022-10-14T01:17:05;10.70;99.90
29551;DHT22;16488;52.396;10.696;2022-10-14T01:19:49;10.80;99.90
29551;DHT22;16488;52.396;10.696;2022-10-14T01:22:30;10.90;99.90
29551;DHT22;16488;52.396;10.696;2022-10-14T01:25:17;11.00;99.90
29551;DHT22;16488;52.396;10.696;2022-10-14T01:30:21;11.20;99.90
29551;DHT22;16488;52.396;10.696;2022-10-14T01:33:02;11.20;99.90
29551;DHT22;16488;52.396;10.696;2022-10-14T01:35:36;11.20;99.90
29551;DHT22;16488;52.396;10.696;2022-10-14T01:38:16;11.30;99.90
29551;DHT22;16488;52.396;10.696;2022-10-14T01:40:49;11.40;99.90
29551;DHT22;16488;52.396;10.696;2022-10-14T01:43:18;11.40;99.90
29551;DHT22;16488;52.396;10.696;2022-10-14T01:45:47;11.50;99.90
29551;DHT22;16488;52.396;10.696;2022-10-14T01:48:17;11.50;99.90
29551;DHT22;16488;52.396;10.696;2022-10-14T01:50:45;11.60;99.90
29551;DHT22;16488;52.396;10.696;2022-10-14T01:53:17;11.70;99.90
29551;DHT22;16488;52.396;10.696;2022-10-14T01:55:46;11.70;99.90
29551;DHT22;16488;52.396;10.696;2022-10-14T01:58:14;11.80;99.90
29551;DHT22;16488;52.396;10.696;2022-10-14T02:00:40;11.80;99.90
29551;DHT22;16488;52.396;10.696;2022-10-14T02:03:06;11.80;99.90
29551;DHT22;16488;52.396;10.696;2022-10-14T02:05:59;11.80;99.90
29551;DHT22;16488;52.396;10.696;2022-10-14T02:09:00;11.80;99.90
29551;DHT22;16488;52.396;10.696;2022-10-14T02:11:56;11.70;99.90
29551;DHT22;16488;52.396;10.696;2022-10-14T02:17:20;11.80;99.90
29551;DHT22;16488;52.396;10.696;2022-10-14T02:20:00;11.80;99.90
29551;DHT22;16488;52.396;10.696;2022-10-14T02:22:34;11.90;99.90
29551;DHT22;16488;52.396;10.696;2022-10-14T02:25:17;11.90;99.90
29551;DHT22;16488;52.396;10.696;2022-10-14T02:27:44;11.90;99.90
29551;DHT22;16488;52.396;10.696;2022-10-14T02:30:12;12.00;99.90
29551;DHT22;16488;52.396;10.696;2022-10-14T02:32:39;12.00;99.90
29551;DHT22;16488;52.396;10.696;2022-10-14T02:35:06;12.00;99.90
29551;DHT22;16488;52.396;10.696;2022-10-14T02:37:34;12.00;99.90
29551;DHT22;16488;52.396;10.696;2022-10-14T02:40:13;12.00;99.90
29551;DHT22;16488;52.396;10.696;2022-10-14T02:42:40;12.00;99.90
29551;DHT22;16488;52.396;10.696;2022-10-14T02:45:06;11.90;99.90
29551;DHT22;16488;52.396;10.696;2022-10-14T02:47:33;11.90;99.90
29551;DHT22;16488;52.396;10.696;2022-10-14T02:49:59;11.90;99.90
29551;DHT22;16488;52.396;10.696;2022-10-14T02:52:24;12.00;99.90
29551;DHT22;16488;52.396;10.696;2022-10-14T02:54:50;11.90;99.90
29551;DHT22;16488;52.396;10.696;2022-10-14T02:57:15;12.00;99.90
29551;DHT22;16488;52.396;10.696;2022-10-14T02:59:41;12.00;99.90
29551;DHT22;16488;52.396;10.696;2022-10-14T03:02:07;12.00;99.90
29551;DHT22;16488;52.396;10.696;2022-10-14T03:04:33;12.00;99.90
29551;DHT22;16488;52.396;10.696;2022-10-14T03:06:59;12.00;99.90
29551;DHT22;16488;52.396;10.696;2022-10-14T03:09:25;12.10;99.90
29551;DHT22;16488;52.396;10.696;2022-10-14T03:11:50;12.10;99.90
29551;DHT22;16488;52.396;10.696;2022-10-14T03:14:16;12.10;99.90
29551;DHT22;16488;52.396;10.696;2022-10-14T03:16:41;12.10;99.90
29551;DHT22;16488;52.396;10.696;2022-10-14T03:19:07;12.10;99.90
29551;DHT22;16488;52.396;10.696;2022-10-14T03:21:32;12.20;99.90
29551;DHT22;16488;52.396;10.696;2022-10-14T03:23:58;12.20;99.90
29551;DHT22;16488;52.396;10.696;2022-10-14T03:26:26;12.20;99.90
29551;DHT22;16488;52.396;10.696;2022-10-14T03:28:51;12.20;99.90
29551;DHT22;16488;52.396;10.696;2022-10-14T03:31:17;12.20;99.90
29551;DHT22;16488;52.396;10.696;2022-10-14T03:33:43;12.20;99.90
29551;DHT22;16488;52.396;10.696;2022-10-14T03:36:08;12.20;99.90
29551;DHT22;16488;52.396;10.696;2022-10-14T03:38:34;12.30;99.90
29551;DHT22;16488;52.396;10.696;2022-10-14T03:40:59;12.30;99.90
29551;DHT22;16488;52.396;10.696;2022-10-14T03:43:25;12.30;99.90
29551;DHT22;16488;52.396;10.696;2022-10-14T03:45:50;12.30;99.90
29551;DHT22;16488;52.396;10.696;2022-10-14T03:48:16;12.30;99.90
29551;DHT22;16488;52.396;10.696;2022-10-14T03:50:41;12.30;99.90
29551;DHT22;16488;52.396;10.696;2022-10-14T03:53:07;12.30;99.90
29551;DHT22;16488;52.396;10.696;2022-10-14T03:55:33;12.30;99.90
29551;DHT22;16488;52.396;10.696;2022-10-14T03:57:58;12.30;99.90
29551;DHT22;16488;52.396;10.696;2022-10-14T04:00:24;12.30;99.90
29551;DHT22;16488;52.396;10.696;2022-10-14T04:02:49;12.30;99.90
29551;DHT22;16488;52.396;10.696;2022-10-14T04:05:15;12.30;99.90
29551;DHT22;16488;52.396;10.696;2022-10-14T04:07:40;12.30;99.90
29551;DHT22;16488;52.396;10.696;2022-10-14T04:10:06;12.30;99.90
29551;DHT22;16488;52.396;10.696;2022-10-14T04:12:32;12.30;99.90
29551;DHT22;16488;52.396;10.696;2022-10-14T04:14:57;12.30;99.90
29551;DHT22;16488;52.396;10.696;2022-10-14T04:17:24;12.30;99.90
29551;DHT22;16488;52.396;10.696;2022-10-14T04:19:50;12.20;99.90
29551;DHT22;16488;52.396;10.696;2022-10-14T04:22:16;12.20;99.90
29551;DHT22;16488;52.396;10.696;2022-10-14T04:24:42;12.20;99.90
29551;DHT22;16488;52.396;10.696;2022-10-14T04:27:07;12.20;99.90
29551;DHT22;16488;52.396;10.696;2022-10-14T04:29:33;12.20;99.90
29551;DHT22;16488;52.396;10.696;2022-10-14T04:31:58;12.10;99.90
29551;DHT22;16488;52.396;10.696;2022-10-14T04:34:24;12.10;99.90
29551;DHT22;16488;52.396;10.696;2022-10-14T04:36:51;12.10;99.90
29551;DHT22;16488;52.396;10.696;2022-10-14T04:39:17;12.10;99.90
29551;DHT22;16488;52.396;10.696;2022-10-14T04:41:43;12.10;99.90
29551;DHT22;16488;52.396;10.696;2022-10-14T04:44:08;12.00;99.90
29551;DHT22;16488;52.396;10.696;2022-10-14T04:46:34;12.10;99.90
29551;DHT22;16488;52.396;10.696;2022-10-14T04:48:59;12.10;99.90
29551;DHT22;16488;52.396;10.696;2022-10-14T04:51:25;12.20;99.90
29551;DHT22;16488;52.396;10.696;2022-10-14T04:53:50;12.20;99.90
29551;DHT22;16488;52.396;10.696;2022-10-14T04:56:16;12.20;99.90
29551;DHT22;16488;52.396;10.696;2022-10-14T04:58:42;12.20;99.90
29551;DHT22;16488;52.396;10.696;2022-10-14T05:01:07;12.20;99.90
29551;DHT22;16488;52.396;10.696;2022-10-14T05:03:33;12.20;99.90
29551;DHT22;16488;52.396;10.696;2022-10-14T05:05:59;12.30;99.90
29551;DHT22;16488;52.396;10.696;2022-10-14T05:08:24;12.30;99.90
29551;DHT22;16488;52.396;10.696;2022-10-14T05:10:50;12.20;99.90
29551;DHT22;16488;52.396;10.696;2022-10-14T05:13:16;12.20;99.90
29551;DHT22;16488;52.396;10.696;2022-10-14T05:15:42;12.30;99.90
29551;DHT22;16488;52.396;10.696;2022-10-14T05:18:10;12.20;99.90
29551;DHT22;16488;52.396;10.696;2022-10-14T05:20:36;12.20;99.90
29551;DHT22;16488;52.396;10.696;2022-10-14T05:23:03;12.20;99.90
29551;DHT22;16488;52.396;10.696;2022-10-14T05:25:29;12.20;99.90
29551;DHT22;16488;52.396;10.696;2022-10-14T05:27:55;12.20;99.90
29551;DHT22;16488;52.396;10.696;2022-10-14T05:30:20;12.20;99.90
29551;DHT22;16488;52.396;10.696;2022-10-14T05:32:46;12.30;99.90
29551;DHT22;16488;52.396;10.696;2022-10-14T05:35:12;12.30;99.90
29551;DHT22;16488;52.396;10.696;2022-10-14T05:37:37;12.30;99.90
29551;DHT22;16488;52.396;10.696;2022-10-14T05:40:03;12.30;99.90
29551;DHT22;16488;52.396;10.696;2022-10-14T05:42:29;12.40;99.90
29551;DHT22;16488;52.396;10.696;2022-10-14T05:44:55;12.40;99.90
29551;DHT22;16488;52.396;10.696;2022-10-14T05:47:20;12.40;99.90
29551;DHT22;16488;52.396;10.696;2022-10-14T05:49:46;12.50;99.90
29551;DHT22;16488;52.396;10.696;2022-10-14T05:52:11;12.40;99.90
29551;DHT22;16488;52.396;10.696;2022-10-14T05:54:37;12.40;99.90
29551;DHT22;16488;52.396;10.696;2022-10-14T05:57:02;12.40;99.90
29551;DHT22;16488;52.396;10.696;2022-10-14T05:59:31;12.40;99.90
29551;DHT22;16488;52.396;10.696;2022-10-14T06:01:59;12.40;99.90
29551;DHT22;16488;52.396;10.696;2022-10-14T06:04:25;12.30;99.90
29551;DHT22;16488;52.396;10.696;2022-10-14T06:06:51;12.30;99.90
29551;DHT22;16488;52.396;10.696;2022-10-14T06:09:16;12.30;99.90
29551;DHT22;16488;52.396;10.696;2022-10-14T06:11:42;12.30;99.90
29551;DHT22;16488;52.396;10.696;2022-10-14T06:14:08;12.30;99.90
29551;DHT22;16488;52.396;10.696;2022-10-14T06:16:33;12.30;99.90
29551;DHT22;16488;52.396;10.696;2022-10-14T06:18:59;12.30;99.90
29551;DHT22;16488;52.396;10.696;2022-10-14T06:21:25;12.30;99.90
29551;DHT22;16488;52.396;10.696;2022-10-14T06:23:50;12.30;99.90
29551;DHT22;16488;52.396;10.696;2022-10-14T06:26:16;12.40;99.90
29551;DHT22;16488;52.396;10.696;2022-10-14T06:28:42;12.40;99.90
29551;DHT22;16488;52.396;10.696;2022-10-14T06:31:07;12.40;99.90
29551;DHT22;16488;52.396;10.696;2022-10-14T06:33:33;12.40;99.90
29551;DHT22;16488;52.396;10.696;2022-10-14T06:36:03;12.40;99.90
29551;DHT22;16488;52.396;10.696;2022-10-14T06:38:29;12.40;99.90
29551;DHT22;16488;52.396;10.696;2022-10-14T06:40:55;12.40;99.90
29551;DHT22;16488;52.396;10.696;2022-10-14T06:43:21;12.40;99.90
29551;DHT22;16488;52.396;10.696;2022-10-14T06:45:47;12.40;99.90
29551;DHT22;16488;52.396;10.696;2022-10-14T06:48:13;12.40;99.90
29551;DHT22;16488;52.396;10.696;2022-10-14T06:50:39;12.40;99.90
29551;DHT22;16488;52.396;10.696;2022-10-14T06:53:04;12.50;99.90
29551;DHT22;16488;52.396;10.696;2022-10-14T06:55:30;12.50;99.90
29551;DHT22;16488;52.396;10.696;2022-10-14T06:57:56;12.50;99.90
29551;DHT22;16488;52.396;10.696;2022-10-14T07:00:22;12.50;99.90
29551;DHT22;16488;52.396;10.696;2022-10-14T07:02:48;12.60;99.90
29551;DHT22;16488;52.396;10.696;2022-10-14T07:05:14;12.60;99.90
29551;DHT22;16488;52.396;10.696;2022-10-14T07:07:39;12.60;99.90
29551;DHT22;16488;52.396;10.696;2022-10-14T07:10:05;12.70;99.90
29551;DHT22;16488;52.396;10.696;2022-10-14T07:12:31;12.70;99.90
29551;DHT22;16488;52.396;10.696;2022-10-14T07:14:56;12.80;99.90
29551;DHT22;16488;52.396;10.696;2022-10-14T07:17:22;12.80;99.90
29551;DHT22;16488;52.396;10.696;2022-10-14T07:19:48;12.90;99.90
29551;DHT22;16488;52.396;10.696;2022-10-14T07:22:13;12.90;99.90
29551;DHT22;16488;52.396;10.696;2022-10-14T07:24:40;12.90;99.90
29551;DHT22;16488;52.396;10.696;2022-10-14T07:27:07;13.00;99.90
29551;DHT22;16488;52.396;10.696;2022-10-14T07:29:33;13.10;99.90
29551;DHT22;16488;52.396;10.696;2022-10-14T07:31:59;13.20;99.90
29551;DHT22;16488;52.396;10.696;2022-10-14T07:34:24;13.20;99.90
29551;DHT22;16488;52.396;10.696;2022-10-14T07:36:50;13.30;99.90
29551;DHT22;16488;52.396;10.696;2022-10-14T07:39:16;13.30;99.90
29551;DHT22;16488;52.396;10.696;2022-10-14T07:41:41;13.40;99.90
29551;DHT22;16488;52.396;10.696;2022-10-14T07:44:07;13.50;99.90
29551;DHT22;16488;52.396;10.696;2022-10-14T07:46:36;13.50;99.90
29551;DHT22;16488;52.396;10.696;2022-10-14T07:49:09;13.60;99.90
29551;DHT22;16488;52.396;10.696;2022-10-14T07:51:35;13.70;99.90
29551;DHT22;16488;52.396;10.696;2022-10-14T07:54:03;13.80;99.90
29551;DHT22;16488;52.396;10.696;2022-10-14T07:56:30;13.90;99.90
29551;DHT22;16488;52.396;10.696;2022-10-14T07:58:57;13.90;99.90
29551;DHT22;16488;52.396;10.696;2022-10-14T08:01:22;14.00;99.90
29551;DHT22;16488;52.396;10.696;2022-10-14T08:03:49;13.90;99.90
29551;DHT22;16488;52.396;10.696;2022-10-14T08:06:15;13.90;99.90
29551;DHT22;16488;52.396;10.696;2022-10-14T08:08:41;13.90;99.90
29551;DHT22;16488;52.396;10.696;2022-10-14T08:11:10;13.90;99.90
29551;DHT22;16488;52.396;10.696;2022-10-14T08:13:37;13.90;99.90
29551;DHT22;16488;52.396;10.696;2022-10-14T08:16:08;13.90;99.90
29551;DHT22;16488;52.396;10.696;2022-10-14T08:18:36;13.90;99.90
29551;DHT22;16488;52.396;10.696;2022-10-14T08:21:02;13.90;99.90
29551;DHT22;16488;52.396;10.696;2022-10-14T08:23:27;13.90;99.90
29551;DHT22;16488;52.396;10.696;2022-10-14T08:25:57;13.90;99.90
29551;DHT22;16488;52.396;10.696;2022-10-14T08:28:23;13.90;99.90
29551;DHT22;16488;52.396;10.696;2022-10-14T08:30:48;13.90;99.90
29551;DHT22;16488;52.396;10.696;2022-10-14T08:33:14;13.90;99.90
29551;DHT22;16488;52.396;10.696;2022-10-14T08:35:40;14.00;99.90
29551;DHT22;16488;52.396;10.696;2022-10-14T08:38:06;14.00;99.90
29551;DHT22;16488;52.396;10.696;2022-10-14T08:40:52;14.00;99.90
29551;DHT22;16488;52.396;10.696;2022-10-14T08:43:28;13.90;99.90
29551;DHT22;16488;52.396;10.696;2022-10-14T08:46:01;14.00;99.90
29551;DHT22;16488;52.396;10.696;2022-10-14T08:48:30;14.00;99.90
29551;DHT22;16488;52.396;10.696;2022-10-14T08:51:08;14.00;99.90
29551;DHT22;16488;52.396;10.696;2022-10-14T08:53:38;14.10;99.90
29551;DHT22;16488;52.396;10.696;2022-10-14T08:56:06;14.20;99.90
29551;DHT22;16488;52.396;10.696;2022-10-14T08:58:49;14.20;99.90
29551;DHT22;16488;52.396;10.696;2022-10-14T09:01:27;14.30;99.90
29551;DHT22;16488;52.396;10.696;2022-10-14T09:03:59;14.30;99.90
29551;DHT22;16488;52.396;10.696;2022-10-14T09:06:28;14.40;99.90
29551;DHT22;16488;52.396;10.696;2022-10-14T09:09:18;14.50;99.90
29551;DHT22;16488;52.396;10.696;2022-10-14T09:11:50;14.40;99.90
29551;DHT22;16488;52.396;10.696;2022-10-14T09:14:20;14.50;99.90
29551;DHT22;16488;52.396;10.696;2022-10-14T09:16:48;14.50;99.90
29551;DHT22;16488;52.396;10.696;2022-10-14T09:21:54;14.50;99.90
29551;DHT22;16488;52.396;10.696;2022-10-14T09:24:26;14.60;99.90
29551;DHT22;16488;52.396;10.696;2022-10-14T09:26:59;14.80;99.90
29551;DHT22;16488;52.396;10.696;2022-10-14T09:29:47;14.80;99.90
29551;DHT22;16488;52.396;10.696;2022-10-14T09:32:35;14.90;99.90
29551;DHT22;16488;52.396;10.696;2022-10-14T09:35:27;14.90;99.90
29551;DHT22;16488;52.396;10.696;2022-10-14T09:37:54;15.00;99.90
29551;DHT22;16488;52.396;10.696;2022-10-14T09:40:34;15.20;99.90
29551;DHT22;16488;52.396;10.696;2022-10-14T09:43:14;15.40;99.90
29551;DHT22;16488;52.396;10.696;2022-10-14T09:45:49;15.70;99.90
29551;DHT22;16488;52.396;10.696;2022-10-14T09:48:31;15.90;99.90
29551;DHT22;16488;52.396;10.696;2022-10-14T09:51:00;15.80;99.90
29551;DHT22;16488;52.396;10.696;2022-10-14T09:53:39;15.70;99.90
29551;DHT22;16488;52.396;10.696;2022-10-14T09:56:10;15.50;99.90
29551;DHT22;16488;52.396;10.696;2022-10-14T09:58:45;15.40;99.90
29551;DHT22;16488;52.396;10.696;2022-10-14T10:01:20;15.30;99.90
29551;DHT22;16488;52.396;10.696;2022-10-14T10:03:47;15.30;99.90
29551;DHT22;16488;52.396;10.696;2022-10-14T10:06:16;15.40;99.90
29551;DHT22;16488;52.396;10.696;2022-10-14T10:11:30;15.60;99.90
29551;DHT22;16488;52.396;10.696;2022-10-14T10:16:40;15.70;99.90
29551;DHT22;16488;52.396;10.696;2022-10-14T10:21:45;15.80;99.90
29551;DHT22;16488;52.396;10.696;2022-10-14T10:24:18;15.80;99.90
29551;DHT22;16488;52.396;10.696;2022-10-14T10:26:46;16.10;99.90
29551;DHT22;16488;52.396;10.696;2022-10-14T10:29:24;16.10;99.90
29551;DHT22;16488;52.396;10.696;2022-10-14T10:31:59;16.00;99.90
29551;DHT22;16488;52.396;10.696;2022-10-14T10:34:44;16.00;99.90
29551;DHT22;16488;52.396;10.696;2022-10-14T10:37:20;16.00;99.90
29551;DHT22;16488;52.396;10.696;2022-10-14T10:48:18;16.00;99.90
29551;DHT22;16488;52.396;10.696;2022-10-14T10:50:58;16.00;99.90
29551;DHT22;16488;52.396;10.696;2022-10-14T10:56:53;16.00;99.90
29551;DHT22;16488;52.396;10.696;2022-10-14T10:59:34;16.00;99.90
29551;DHT22;16488;52.396;10.696;2022-10-14T11:04:51;16.30;99.90
29551;DHT22;16488;52.396;10.696;2022-10-14T11:14:21;16.70;99.90
29551;DHT22;16488;52.396;10.696;2022-10-14T11:22:43;16.50;99.90
29551;DHT22;16488;52.396;10.696;2022-10-14T11:28:40;16.40;99.90
29551;DHT22;16488;52.396;10.696;2022-10-14T11:39:43;17.00;99.90
29551;DHT22;16488;52.396;10.696;2022-10-14T11:48:24;17.30;99.90
29551;DHT22;16488;52.396;10.696;2022-10-14T11:50:49;17.40;99.90
29551;DHT22;16488;52.396;10.696;2022-10-14T11:53:20;17.40;99.90
29551;DHT22;16488;52.396;10.696;2022-10-14T11:55:56;17.30;99.90
29551;DHT22;16488;52.396;10.696;2022-10-14T11:58:26;17.10;99.90
29551;DHT22;16488;52.396;10.696;2022-10-14T12:00:55;17.00;99.90
29551;DHT22;16488;52.396;10.696;2022-10-14T12:06:46;17.10;99.90
29551;DHT22;16488;52.396;10.696;2022-10-14T12:09:24;17.10;99.90
29551;DHT22;16488;52.396;10.696;2022-10-14T12:12:06;17.30;99.90
29551;DHT22;16488;52.396;10.696;2022-10-14T12:14:42;17.30;99.90
29551;DHT22;16488;52.396;10.696;2022-10-14T12:19:49;17.40;99.90
29551;DHT22;16488;52.396;10.696;2022-10-14T12:22:21;17.60;99.90
29551;DHT22;16488;52.396;10.696;2022-10-14T12:24:53;17.60;99.90
29551;DHT22;16488;52.396;10.696;2022-10-14T12:27:22;17.50;99.90
29551;DHT22;16488;52.396;10.696;2022-10-14T12:29:49;17.70;99.90
29551;DHT22;16488;52.396;10.696;2022-10-14T12:34:42;18.10;99.90
29551;DHT22;16488;52.396;10.696;2022-10-14T12:42:26;18.00;99.90
29551;DHT22;16488;52.396;10.696;2022-10-14T12:44:54;18.00;99.90
29551;DHT22;16488;52.396;10.696;2022-10-14T12:47:32;17.90;99.90
29551;DHT22;16488;52.396;10.696;2022-10-14T12:50:05;17.90;99.90
29551;DHT22;16488;52.396;10.696;2022-10-14T12:52:55;17.70;99.90
29551;DHT22;16488;52.396;10.696;2022-10-14T12:55:24;17.70;99.90
29551;DHT22;16488;52.396;10.696;2022-10-14T12:57:56;17.70;99.90
29551;DHT22;16488;52.396;10.696;2022-10-14T13:02:50;17.60;99.90
29551;DHT22;16488;52.396;10.696;2022-10-14T13:05:42;17.50;99.90
29551;DHT22;16488;52.396;10.696;2022-10-14T13:24:14;17.10;99.90
29551;DHT22;16488;52.396;10.696;2022-10-14T13:26:51;17.20;99.90
29551;DHT22;16488;52.396;10.696;2022-10-14T13:29:31;17.10;99.90
29551;DHT22;16488;52.396;10.696;2022-10-14T13:37:34;17.00;99.90
29551;DHT22;16488;52.396;10.696;2022-10-14T13:42:45;17.00;99.90
29551;DHT22;16488;52.396;10.696;2022-10-14T13:45:13;17.00;99.90
29551;DHT22;16488;52.396;10.696;2022-10-14T13:47:45;17.00;99.90
29551;DHT22;16488;52.396;10.696;2022-10-14T13:50:15;17.00;99.90
29551;DHT22;16488;52.396;10.696;2022-10-14T13:52:56;17.00;99.90
29551;DHT22;16488;52.396;10.696;2022-10-14T13:55:24;17.00;99.90
29551;DHT22;16488;52.396;10.696;2022-10-14T13:58:16;17.00;99.90
29551;DHT22;16488;52.396;10.696;2022-10-14T14:05:54;17.00;99.90
29551;DHT22;16488;52.396;10.696;2022-10-14T14:08:44;17.00;99.90
29551;DHT22;16488;52.396;10.696;2022-10-14T14:11:05;17.00;99.90
29551;DHT22;16488;52.396;10.696;2022-10-14T14:13:41;16.90;99.90
29551;DHT22;16488;52.396;10.696;2022-10-14T14:16:17;16.90;99.90
29551;DHT22;16488;52.396;10.696;2022-10-14T14:18:49;16.90;99.90
29551;DHT22;16488;52.396;10.696;2022-10-14T14:21:20;16.90;99.90
29551;DHT22;16488;52.396;10.696;2022-10-14T14:23:54;16.90;99.90
29551;DHT22;16488;52.396;10.696;2022-10-14T14:26:27;16.90;99.90
29551;DHT22;16488;52.396;10.696;2022-10-14T14:28:56;16.90;99.90
29551;DHT22;16488;52.396;10.696;2022-10-14T14:31:25;16.90;99.90
29551;DHT22;16488;52.396;10.696;2022-10-14T14:33:56;16.90;99.90
29551;DHT22;16488;52.396;10.696;2022-10-14T14:36:26;16.90;99.90
29551;DHT22;16488;52.396;10.696;2022-10-14T14:38:55;16.80;99.90
29551;DHT22;16488;52.396;10.696;2022-10-14T14:41:24;16.80;99.90
29551;DHT22;16488;52.396;10.696;2022-10-14T14:43:52;16.80;99.90
29551;DHT22;16488;52.396;10.696;2022-10-14T14:46:32;16.70;99.90
29551;DHT22;16488;52.396;10.696;2022-10-14T14:48:59;16.70;99.90
29551;DHT22;16488;52.396;10.696;2022-10-14T14:51:29;16.70;99.90
29551;DHT22;16488;52.396;10.696;2022-10-14T14:53:56;16.60;99.90
29551;DHT22;16488;52.396;10.696;2022-10-14T14:56:26;16.60;99.90
29551;DHT22;16488;52.396;10.696;2022-10-14T14:58:55;16.60;99.90
29551;DHT22;16488;52.396;10.696;2022-10-14T15:01:28;16.60;99.90
29551;DHT22;16488;52.396;10.696;2022-10-14T15:04:03;16.50;99.90
29551;DHT22;16488;52.396;10.696;2022-10-14T15:06:31;16.50;99.90
29551;DHT22;16488;52.396;10.696;2022-10-14T15:09:08;16.50;99.90
29551;DHT22;16488;52.396;10.696;2022-10-14T15:11:49;16.50;99.90
29551;DHT22;16488;52.396;10.696;2022-10-14T15:14:48;16.40;99.90
29551;DHT22;16488;52.396;10.696;2022-10-14T15:17:36;16.40;99.90
29551;DHT22;16488;52.396;10.696;2022-10-14T15:22:38;16.40;99.90
29551;DHT22;16488;52.396;10.696;2022-10-14T15:25:21;16.40;99.90
29551;DHT22;16488;52.396;10.696;2022-10-14T15:28:01;16.40;99.90
29551;DHT22;16488;52.396;10.696;2022-10-14T15:33:19;16.40;99.90
29551;DHT22;16488;52.396;10.696;2022-10-14T15:35:52;16.40;99.90
29551;DHT22;16488;52.396;10.696;2022-10-14T15:38:18;16.40;99.90
29551;DHT22;16488;52.396;10.696;2022-10-14T15:40:45;16.40;99.90
29551;DHT22;16488;52.396;10.696;2022-10-14T15:43:14;16.30;99.90
29551;DHT22;16488;52.396;10.696;2022-10-14T15:45:41;16.30;99.90
29551;DHT22;16488;52.396;10.696;2022-10-14T15:48:19;16.30;99.90
29551;DHT22;16488;52.396;10.696;2022-10-14T15:50:50;16.30;99.90
29551;DHT22;16488;52.396;10.696;2022-10-14T15:53:16;16.30;99.90
29551;DHT22;16488;52.396;10.696;2022-10-14T15:55:42;16.20;99.90
29551;DHT22;16488;52.396;10.696;2022-10-14T15:58:08;16.30;99.90
29551;DHT22;16488;52.396;10.696;2022-10-14T16:00:34;16.30;99.90
29551;DHT22;16488;52.396;10.696;2022-10-14T16:02:59;16.20;99.90
29551;DHT22;16488;52.396;10.696;2022-10-14T16:05:28;16.20;99.90
29551;DHT22;16488;52.396;10.696;2022-10-14T16:07:55;16.20;99.90
29551;DHT22;16488;52.396;10.696;2022-10-14T16:10:22;16.10;99.90
29551;DHT22;16488;52.396;10.696;2022-10-14T16:12:49;16.10;99.90
29551;DHT22;16488;52.396;10.696;2022-10-14T16:15:46;16.10;99.90
29551;DHT22;16488;52.396;10.696;2022-10-14T16:18:12;16.00;99.90
29551;DHT22;16488;52.396;10.696;2022-10-14T16:20:38;16.00;99.90
29551;DHT22;16488;52.396;10.696;2022-10-14T16:23:04;16.00;99.90
29551;DHT22;16488;52.396;10.696;2022-10-14T16:25:34;16.00;99.90
29551;DHT22;16488;52.396;10.696;2022-10-14T16:28:00;15.90;99.90
29551;DHT22;16488;52.396;10.696;2022-10-14T16:30:26;15.90;99.90
29551;DHT22;16488;52.396;10.696;2022-10-14T16:32:53;15.90;99.90
29551;DHT22;16488;52.396;10.696;2022-10-14T16:35:19;15.90;99.90
29551;DHT22;16488;52.396;10.696;2022-10-14T16:37:44;15.80;99.90
29551;DHT22;16488;52.396;10.696;2022-10-14T16:40:11;15.90;99.90
29551;DHT22;16488;52.396;10.696;2022-10-14T16:42:37;15.80;99.90
29551;DHT22;16488;52.396;10.696;2022-10-14T16:45:03;15.80;99.90
29551;DHT22;16488;52.396;10.696;2022-10-14T16:47:28;15.90;99.90
29551;DHT22;16488;52.396;10.696;2022-10-14T16:49:54;15.90;99.90
29551;DHT22;16488;52.396;10.696;2022-10-14T16:52:21;15.90;99.90
29551;DHT22;16488;52.396;10.696;2022-10-14T16:54:47;15.90;99.90
29551;DHT22;16488;52.396;10.696;2022-10-14T16:57:13;15.80;99.90
29551;DHT22;16488;52.396;10.696;2022-10-14T16:59:39;15.90;99.90
29551;DHT22;16488;52.396;10.696;2022-10-14T17:02:04;15.80;99.90
29551;DHT22;16488;52.396;10.696;2022-10-14T17:04:34;15.80;99.90
29551;DHT22;16488;52.396;10.696;2022-10-14T17:07:00;15.80;99.90
29551;DHT22;16488;52.396;10.696;2022-10-14T17:09:32;15.80;99.90
29551;DHT22;16488;52.396;10.696;2022-10-14T17:11:58;15.80;99.90
29551;DHT22;16488;52.396;10.696;2022-10-14T17:14:23;15.80;99.90
29551;DHT22;16488;52.396;10.696;2022-10-14T17:16:49;15.80;99.90
29551;DHT22;16488;52.396;10.696;2022-10-14T17:19:16;15.80;99.90
29551;DHT22;16488;52.396;10.696;2022-10-14T17:21:42;15.80;99.90
29551;DHT22;16488;52.396;10.696;2022-10-14T17:24:08;15.90;99.90